METAR KZZZ 211430Z 22004KT BR OVC003 M02/M02 A3006 RMK SLP177 T10001022 11017 21022 57014 410061039